This is the latest recevied weather packets stored in our database for station/object R2AKT-13. If no packets are shown the sender has not sent any weather packets the latest 10 day(s).
| Time | Temp. | Humidity | Pressure | Rain* | Wind** | Luminosity | Snow |
|---|---|---|---|---|---|---|---|
| 1777716059 | 12.22° C | 41% | 995.1 hPa | - | 0 m/s | - | - |
| 1777715544 | 12.22° C | 42% | 995.1 hPa | - | 0.89 m/s, 252° | - | - |
| 1777715009 | 11.67° C | 42% | 995.2 hPa | - | 0.45 m/s, 259° | - | - |
| 1777714519 | 12.22° C | 41% | 995.1 hPa | - | 0.45 m/s, 246° | - | - |
| 1777713999 | 12.78° C | 40% | 995.2 hPa | - | 0.45 m/s, 198° | - | - |
| 1777713519 | 11.67° C | 42% | 995.2 hPa | - | 1.34 m/s, 224° | - | - |
| 1777712929 | 11.67° C | 42% | 995.2 hPa | - | 0.45 m/s, 279° | - | - |
| 1777712444 | 12.22° C | 40% | 995.2 hPa | - | 0.89 m/s, 154° | - | - |
| 1777711889 | 11.11° C | 42% | 995.4 hPa | - | 0.45 m/s, 256° | - | - |
| 1777711314 | 11.11° C | 41% | 995.5 hPa | - | 1.34 m/s, 243° | - | - |
| 1777710714 | 11.11° C | 41% | 995.7 hPa | - | 0.89 m/s, 233° | - | - |
| 1777710179 | 11.67° C | 39% | 995.7 hPa | - | 0.89 m/s, 229° | - | - |
| 1777709620 | 10.56° C | 42% | 995.7 hPa | - | 1.79 m/s, 194° | - | - |
| 1777709059 | 10.56° C | 42% | 995.8 hPa | - | 1.34 m/s, 265° | - | - |
| 1777708504 | 10° C | 42% | 995.9 hPa | - | 0.89 m/s, 260° | - | - |
| 1777708019 | 10° C | 42% | 995.8 hPa | - | 0.89 m/s, 242° | - | - |
| 1777707429 | 10.56° C | 42% | 995.8 hPa | - | 1.34 m/s, 257° | - | - |
| 1777706829 | 10° C | 42% | 995.9 hPa | - | 1.34 m/s, 258° | - | - |
| 1777706344 | 10.56° C | 42% | 995.9 hPa | - | 1.34 m/s, 206° | - | - |
| 1777705829 | 10.56° C | 45% | 996 hPa | - | 0.89 m/s, 182° | - | - |
| 1777705239 | 10° C | 43% | 996 hPa | - | 0.89 m/s, 200° | - | - |
| 1777704714 | 9.44° C | 45% | 996 hPa | - | 0.89 m/s, 251° | - | - |
| 1777704134 | 9.44° C | 46% | 996.2 hPa | - | 0.89 m/s, 242° | - | - |
| 1777703537 | 9.44° C | 48% | 996.1 hPa | - | 1.34 m/s, 222° | - | - |
| 1777703054 | 8.89° C | 49% | 996.1 hPa | - | 1.79 m/s, 265° | - | - |
* Rain since midnight (hover to see other rain measurements)
** Current wind speed in m/s (hover to see current wind gust speed)